sensor_id;sensor_type;location;lat;lon;timestamp;P1;durP1;ratioP1;P2;durP2;ratioP2
16484;SDS011;8353;47.856;12.344;2022-12-20T00:01:59;9.23;;;6.73;;
16484;SDS011;8353;47.856;12.344;2022-12-20T00:04:30;11.23;;;7.03;;
16484;SDS011;8353;47.856;12.344;2022-12-20T00:07:02;8.57;;;6.67;;
16484;SDS011;8353;47.856;12.344;2022-12-20T00:09:33;8.80;;;6.70;;
16484;SDS011;8353;47.856;12.344;2022-12-20T00:12:03;8.80;;;6.67;;
16484;SDS011;8353;47.856;12.344;2022-12-20T00:14:34;8.77;;;6.63;;
16484;SDS011;8353;47.856;12.344;2022-12-20T00:17:04;21.57;;;14.43;;
16484;SDS011;8353;47.856;12.344;2022-12-20T00:19:35;9.67;;;7.73;;
16484;SDS011;8353;47.856;12.344;2022-12-20T00:22:07;8.17;;;6.33;;
16484;SDS011;8353;47.856;12.344;2022-12-20T00:24:38;10.57;;;7.40;;
16484;SDS011;8353;47.856;12.344;2022-12-20T00:27:09;10.83;;;8.10;;
16484;SDS011;8353;47.856;12.344;2022-12-20T00:29:39;8.17;;;6.07;;
16484;SDS011;8353;47.856;12.344;2022-12-20T00:32:10;8.73;;;6.80;;
16484;SDS011;8353;47.856;12.344;2022-12-20T00:34:40;8.87;;;6.03;;
16484;SDS011;8353;47.856;12.344;2022-12-20T00:37:15;11.13;;;7.80;;
16484;SDS011;8353;47.856;12.344;2022-12-20T00:39:46;8.47;;;7.40;;
16484;SDS011;8353;47.856;12.344;2022-12-20T00:42:16;9.20;;;6.80;;
16484;SDS011;8353;47.856;12.344;2022-12-20T00:44:47;10.73;;;7.37;;
16484;SDS011;8353;47.856;12.344;2022-12-20T00:47:18;9.77;;;7.50;;
16484;SDS011;8353;47.856;12.344;2022-12-20T00:49:48;8.87;;;6.23;;
16484;SDS011;8353;47.856;12.344;2022-12-20T00:52:20;10.47;;;7.40;;
16484;SDS011;8353;47.856;12.344;2022-12-20T00:54:51;9.00;;;7.17;;
16484;SDS011;8353;47.856;12.344;2022-12-20T00:57:22;7.27;;;5.60;;
16484;SDS011;8353;47.856;12.344;2022-12-20T00:59:52;8.03;;;5.60;;
16484;SDS011;8353;47.856;12.344;2022-12-20T01:02:23;9.33;;;7.03;;
16484;SDS011;8353;47.856;12.344;2022-12-20T01:04:54;7.53;;;6.07;;
16484;SDS011;8353;47.856;12.344;2022-12-20T01:07:26;9.10;;;6.30;;
16484;SDS011;8353;47.856;12.344;2022-12-20T01:09:56;6.73;;;5.13;;
16484;SDS011;8353;47.856;12.344;2022-12-20T01:12:27;8.50;;;6.53;;
16484;SDS011;8353;47.856;12.344;2022-12-20T01:14:57;8.47;;;6.30;;
16484;SDS011;8353;47.856;12.344;2022-12-20T01:17:28;13.87;;;8.07;;
16484;SDS011;8353;47.856;12.344;2022-12-20T01:19:58;9.43;;;6.30;;
16484;SDS011;8353;47.856;12.344;2022-12-20T01:22:30;8.80;;;6.23;;
16484;SDS011;8353;47.856;12.344;2022-12-20T01:25:01;8.10;;;4.90;;
16484;SDS011;8353;47.856;12.344;2022-12-20T01:27:31;7.17;;;5.13;;
16484;SDS011;8353;47.856;12.344;2022-12-20T01:30:02;5.97;;;5.00;;
16484;SDS011;8353;47.856;12.344;2022-12-20T01:32:33;6.47;;;5.33;;
16484;SDS011;8353;47.856;12.344;2022-12-20T01:35:03;6.30;;;4.90;;
16484;SDS011;8353;47.856;12.344;2022-12-20T01:37:35;7.17;;;5.27;;
16484;SDS011;8353;47.856;12.344;2022-12-20T01:40:06;6.17;;;5.00;;
16484;SDS011;8353;47.856;12.344;2022-12-20T01:42:38;8.10;;;5.57;;
16484;SDS011;8353;47.856;12.344;2022-12-20T01:45:12;10.10;;;7.27;;
16484;SDS011;8353;47.856;12.344;2022-12-20T01:47:50;7.50;;;5.90;;
16484;SDS011;8353;47.856;12.344;2022-12-20T01:50:22;7.50;;;5.47;;
16484;SDS011;8353;47.856;12.344;2022-12-20T01:52:54;6.13;;;4.87;;
16484;SDS011;8353;47.856;12.344;2022-12-20T01:55:27;6.53;;;4.73;;
16484;SDS011;8353;47.856;12.344;2022-12-20T01:57:59;4.90;;;4.40;;
16484;SDS011;8353;47.856;12.344;2022-12-20T02:00:32;6.23;;;4.20;;
16484;SDS011;8353;47.856;12.344;2022-12-20T02:03:04;6.43;;;4.97;;
16484;SDS011;8353;47.856;12.344;2022-12-20T02:05:38;9.33;;;6.43;;
16484;SDS011;8353;47.856;12.344;2022-12-20T02:08:12;5.87;;;4.60;;
16484;SDS011;8353;47.856;12.344;2022-12-20T02:10:48;7.47;;;5.87;;
16484;SDS011;8353;47.856;12.344;2022-12-20T02:13:30;8.40;;;5.83;;
16484;SDS011;8353;47.856;12.344;2022-12-20T02:16:10;8.17;;;6.10;;
16484;SDS011;8353;47.856;12.344;2022-12-20T02:18:48;8.03;;;5.43;;
16484;SDS011;8353;47.856;12.344;2022-12-20T02:21:25;5.40;;;4.77;;
16484;SDS011;8353;47.856;12.344;2022-12-20T02:27:29;5.83;;;5.20;;
16484;SDS011;8353;47.856;12.344;2022-12-20T02:30:12;8.43;;;5.50;;
16484;SDS011;8353;47.856;12.344;2022-12-20T02:32:47;7.90;;;5.57;;
16484;SDS011;8353;47.856;12.344;2022-12-20T02:35:22;6.37;;;5.10;;
16484;SDS011;8353;47.856;12.344;2022-12-20T02:37:56;7.03;;;5.90;;
16484;SDS011;8353;47.856;12.344;2022-12-20T02:40:29;5.40;;;4.37;;
16484;SDS011;8353;47.856;12.344;2022-12-20T02:43:03;6.63;;;4.80;;
16484;SDS011;8353;47.856;12.344;2022-12-20T02:45:58;6.03;;;5.00;;
16484;SDS011;8353;47.856;12.344;2022-12-20T02:48:29;6.57;;;4.97;;
16484;SDS011;8353;47.856;12.344;2022-12-20T02:51:01;5.90;;;4.30;;
16484;SDS011;8353;47.856;12.344;2022-12-20T02:53:34;5.93;;;4.70;;
16484;SDS011;8353;47.856;12.344;2022-12-20T02:56:07;5.60;;;4.60;;
16484;SDS011;8353;47.856;12.344;2022-12-20T02:58:42;8.90;;;6.80;;
16484;SDS011;8353;47.856;12.344;2022-12-20T03:01:19;17.97;;;5.40;;
16484;SDS011;8353;47.856;12.344;2022-12-20T03:03:54;16.70;;;7.07;;
16484;SDS011;8353;47.856;12.344;2022-12-20T03:06:26;12.47;;;9.23;;
16484;SDS011;8353;47.856;12.344;2022-12-20T03:08:58;22.67;;;7.37;;
16484;SDS011;8353;47.856;12.344;2022-12-20T03:11:29;27.03;;;6.97;;
16484;SDS011;8353;47.856;12.344;2022-12-20T03:13:59;22.57;;;7.10;;
16484;SDS011;8353;47.856;12.344;2022-12-20T03:16:31;26.43;;;6.87;;
16484;SDS011;8353;47.856;12.344;2022-12-20T03:19:02;16.43;;;5.53;;
16484;SDS011;8353;47.856;12.344;2022-12-20T03:21:33;19.23;;;6.43;;
16484;SDS011;8353;47.856;12.344;2022-12-20T03:24:03;14.87;;;6.00;;
16484;SDS011;8353;47.856;12.344;2022-12-20T03:26:35;11.23;;;4.93;;
16484;SDS011;8353;47.856;12.344;2022-12-20T03:29:05;13.53;;;5.43;;
16484;SDS011;8353;47.856;12.344;2022-12-20T03:31:38;8.83;;;5.37;;
16484;SDS011;8353;47.856;12.344;2022-12-20T03:34:09;9.67;;;5.57;;
16484;SDS011;8353;47.856;12.344;2022-12-20T03:36:39;8.70;;;6.03;;
16484;SDS011;8353;47.856;12.344;2022-12-20T03:39:10;8.97;;;4.90;;
16484;SDS011;8353;47.856;12.344;2022-12-20T03:41:50;7.53;;;4.30;;
16484;SDS011;8353;47.856;12.344;2022-12-20T03:44:21;7.87;;;5.40;;
16484;SDS011;8353;47.856;12.344;2022-12-20T03:46:54;6.23;;;4.30;;
16484;SDS011;8353;47.856;12.344;2022-12-20T03:49:25;9.43;;;4.77;;
16484;SDS011;8353;47.856;12.344;2022-12-20T03:51:55;5.70;;;4.47;;
16484;SDS011;8353;47.856;12.344;2022-12-20T03:54:26;7.63;;;4.50;;
16484;SDS011;8353;47.856;12.344;2022-12-20T03:56:56;6.37;;;3.87;;
16484;SDS011;8353;47.856;12.344;2022-12-20T03:59:26;7.00;;;4.30;;
16484;SDS011;8353;47.856;12.344;2022-12-20T04:01:58;6.47;;;3.93;;
16484;SDS011;8353;47.856;12.344;2022-12-20T04:04:29;7.03;;;4.43;;
16484;SDS011;8353;47.856;12.344;2022-12-20T04:06:59;5.80;;;4.77;;
16484;SDS011;8353;47.856;12.344;2022-12-20T04:09:29;7.07;;;4.13;;
16484;SDS011;8353;47.856;12.344;2022-12-20T04:12:00;7.63;;;5.13;;
16484;SDS011;8353;47.856;12.344;2022-12-20T04:14:31;5.40;;;4.40;;
16484;SDS011;8353;47.856;12.344;2022-12-20T04:17:03;6.37;;;4.87;;
16484;SDS011;8353;47.856;12.344;2022-12-20T04:19:34;7.40;;;4.40;;
16484;SDS011;8353;47.856;12.344;2022-12-20T04:22:04;6.10;;;3.53;;
16484;SDS011;8353;47.856;12.344;2022-12-20T04:24:35;5.17;;;4.00;;
16484;SDS011;8353;47.856;12.344;2022-12-20T04:27:05;5.90;;;4.67;;
16484;SDS011;8353;47.856;12.344;2022-12-20T04:29:36;5.30;;;4.40;;
16484;SDS011;8353;47.856;12.344;2022-12-20T04:32:08;6.67;;;5.17;;
16484;SDS011;8353;47.856;12.344;2022-12-20T04:34:38;6.70;;;4.73;;
16484;SDS011;8353;47.856;12.344;2022-12-20T04:37:09;6.47;;;4.73;;
16484;SDS011;8353;47.856;12.344;2022-12-20T04:39:39;4.63;;;3.83;;
16484;SDS011;8353;47.856;12.344;2022-12-20T04:42:10;6.50;;;4.60;;
16484;SDS011;8353;47.856;12.344;2022-12-20T04:44:41;8.67;;;6.23;;
16484;SDS011;8353;47.856;12.344;2022-12-20T04:47:12;5.83;;;4.40;;
16484;SDS011;8353;47.856;12.344;2022-12-20T04:49:43;4.53;;;3.83;;
16484;SDS011;8353;47.856;12.344;2022-12-20T04:52:13;6.17;;;4.73;;
16484;SDS011;8353;47.856;12.344;2022-12-20T04:55:01;4.67;;;3.87;;
16484;SDS011;8353;47.856;12.344;2022-12-20T04:57:31;6.77;;;5.43;;
16484;SDS011;8353;47.856;12.344;2022-12-20T05:00:02;4.70;;;3.77;;
16484;SDS011;8353;47.856;12.344;2022-12-20T05:02:35;6.60;;;4.87;;
16484;SDS011;8353;47.856;12.344;2022-12-20T05:05:05;4.90;;;4.40;;
16484;SDS011;8353;47.856;12.344;2022-12-20T05:07:36;10.87;;;7.87;;
16484;SDS011;8353;47.856;12.344;2022-12-20T05:10:07;4.03;;;3.37;;
16484;SDS011;8353;47.856;12.344;2022-12-20T05:12:38;4.53;;;3.80;;
16484;SDS011;8353;47.856;12.344;2022-12-20T05:15:08;4.63;;;4.10;;
16484;SDS011;8353;47.856;12.344;2022-12-20T05:17:41;4.33;;;3.60;;
16484;SDS011;8353;47.856;12.344;2022-12-20T05:20:12;6.53;;;4.77;;
16484;SDS011;8353;47.856;12.344;2022-12-20T05:22:42;5.87;;;4.10;;
16484;SDS011;8353;47.856;12.344;2022-12-20T05:25:31;4.93;;;4.07;;
16484;SDS011;8353;47.856;12.344;2022-12-20T05:28:19;9.50;;;6.40;;
16484;SDS011;8353;47.856;12.344;2022-12-20T05:30:50;4.70;;;4.20;;
16484;SDS011;8353;47.856;12.344;2022-12-20T05:33:21;6.67;;;4.13;;
16484;SDS011;8353;47.856;12.344;2022-12-20T05:35:52;8.83;;;5.23;;
16484;SDS011;8353;47.856;12.344;2022-12-20T05:38:23;7.43;;;5.87;;
16484;SDS011;8353;47.856;12.344;2022-12-20T05:40:53;6.43;;;4.17;;
16484;SDS011;8353;47.856;12.344;2022-12-20T05:43:24;4.17;;;3.70;;
16484;SDS011;8353;47.856;12.344;2022-12-20T05:45:54;8.23;;;6.37;;
16484;SDS011;8353;47.856;12.344;2022-12-20T05:48:26;5.90;;;4.30;;
16484;SDS011;8353;47.856;12.344;2022-12-20T05:50:56;6.30;;;4.70;;
16484;SDS011;8353;47.856;12.344;2022-12-20T05:53:26;5.77;;;4.70;;
16484;SDS011;8353;47.856;12.344;2022-12-20T05:55:57;12.40;;;7.73;;
16484;SDS011;8353;47.856;12.344;2022-12-20T05:58:29;10.40;;;6.83;;
16484;SDS011;8353;47.856;12.344;2022-12-20T06:01:00;7.87;;;5.03;;
16484;SDS011;8353;47.856;12.344;2022-12-20T06:03:33;6.80;;;5.43;;
16484;SDS011;8353;47.856;12.344;2022-12-20T06:06:04;7.00;;;5.57;;
16484;SDS011;8353;47.856;12.344;2022-12-20T06:08:35;6.47;;;4.97;;
16484;SDS011;8353;47.856;12.344;2022-12-20T06:11:05;5.40;;;4.43;;
16484;SDS011;8353;47.856;12.344;2022-12-20T06:13:35;7.40;;;4.70;;
16484;SDS011;8353;47.856;12.344;2022-12-20T06:16:06;4.97;;;4.10;;
16484;SDS011;8353;47.856;12.344;2022-12-20T06:18:38;8.27;;;5.87;;
16484;SDS011;8353;47.856;12.344;2022-12-20T06:21:09;4.63;;;4.10;;
16484;SDS011;8353;47.856;12.344;2022-12-20T06:23:45;4.43;;;3.77;;
16484;SDS011;8353;47.856;12.344;2022-12-20T06:26:24;5.20;;;4.00;;
16484;SDS011;8353;47.856;12.344;2022-12-20T06:28:55;9.87;;;6.20;;
16484;SDS011;8353;47.856;12.344;2022-12-20T06:31:30;4.00;;;3.50;;
16484;SDS011;8353;47.856;12.344;2022-12-20T06:34:01;8.40;;;5.80;;
16484;SDS011;8353;47.856;12.344;2022-12-20T06:36:32;10.90;;;6.70;;
16484;SDS011;8353;47.856;12.344;2022-12-20T06:39:03;10.13;;;8.00;;
16484;SDS011;8353;47.856;12.344;2022-12-20T06:41:33;14.50;;;11.43;;
16484;SDS011;8353;47.856;12.344;2022-12-20T06:44:04;10.90;;;8.63;;
16484;SDS011;8353;47.856;12.344;2022-12-20T06:46:34;9.80;;;6.53;;
16484;SDS011;8353;47.856;12.344;2022-12-20T06:49:06;14.97;;;10.53;;
16484;SDS011;8353;47.856;12.344;2022-12-20T06:51:36;9.40;;;6.87;;
16484;SDS011;8353;47.856;12.344;2022-12-20T06:54:07;8.33;;;6.63;;
16484;SDS011;8353;47.856;12.344;2022-12-20T06:56:37;9.10;;;6.50;;
16484;SDS011;8353;47.856;12.344;2022-12-20T06:59:08;9.97;;;7.87;;
16484;SDS011;8353;47.856;12.344;2022-12-20T07:01:38;5.60;;;4.60;;
16484;SDS011;8353;47.856;12.344;2022-12-20T07:04:10;6.87;;;5.87;;
16484;SDS011;8353;47.856;12.344;2022-12-20T07:06:40;7.87;;;6.60;;
16484;SDS011;8353;47.856;12.344;2022-12-20T07:09:11;5.57;;;4.20;;
16484;SDS011;8353;47.856;12.344;2022-12-20T07:11:41;5.73;;;5.10;;
16484;SDS011;8353;47.856;12.344;2022-12-20T07:14:14;8.40;;;5.37;;
16484;SDS011;8353;47.856;12.344;2022-12-20T07:16:44;13.57;;;7.67;;
16484;SDS011;8353;47.856;12.344;2022-12-20T07:19:16;15.03;;;10.97;;
16484;SDS011;8353;47.856;12.344;2022-12-20T07:21:46;7.80;;;6.03;;
16484;SDS011;8353;47.856;12.344;2022-12-20T07:24:17;14.53;;;11.03;;
16484;SDS011;8353;47.856;12.344;2022-12-20T07:26:47;6.40;;;5.43;;
16484;SDS011;8353;47.856;12.344;2022-12-20T07:29:17;8.30;;;5.60;;
16484;SDS011;8353;47.856;12.344;2022-12-20T07:31:48;8.67;;;5.93;;
16484;SDS011;8353;47.856;12.344;2022-12-20T07:34:19;6.33;;;5.00;;
16484;SDS011;8353;47.856;12.344;2022-12-20T07:36:50;9.13;;;6.70;;
16484;SDS011;8353;47.856;12.344;2022-12-20T07:39:20;9.63;;;6.73;;
16484;SDS011;8353;47.856;12.344;2022-12-20T07:41:52;9.37;;;7.40;;
16484;SDS011;8353;47.856;12.344;2022-12-20T07:44:23;21.50;;;13.20;;
16484;SDS011;8353;47.856;12.344;2022-12-20T07:46:53;20.97;;;14.50;;
16484;SDS011;8353;47.856;12.344;2022-12-20T07:49:25;12.37;;;7.63;;
16484;SDS011;8353;47.856;12.344;2022-12-20T07:51:56;23.00;;;15.33;;
16484;SDS011;8353;47.856;12.344;2022-12-20T07:54:30;29.10;;;17.87;;
16484;SDS011;8353;47.856;12.344;2022-12-20T07:57:04;12.37;;;8.73;;
16484;SDS011;8353;47.856;12.344;2022-12-20T07:59:39;13.97;;;9.70;;
16484;SDS011;8353;47.856;12.344;2022-12-20T08:02:14;40.77;;;24.03;;
16484;SDS011;8353;47.856;12.344;2022-12-20T08:04:50;30.03;;;19.57;;
16484;SDS011;8353;47.856;12.344;2022-12-20T08:07:22;11.97;;;9.17;;
16484;SDS011;8353;47.856;12.344;2022-12-20T08:09:53;21.47;;;14.80;;
16484;SDS011;8353;47.856;12.344;2022-12-20T08:12:23;28.60;;;19.87;;
16484;SDS011;8353;47.856;12.344;2022-12-20T08:14:55;18.03;;;12.43;;
16484;SDS011;8353;47.856;12.344;2022-12-20T08:17:27;16.23;;;11.77;;
16484;SDS011;8353;47.856;12.344;2022-12-20T08:19:59;21.77;;;12.83;;
16484;SDS011;8353;47.856;12.344;2022-12-20T08:22:29;17.20;;;10.57;;
16484;SDS011;8353;47.856;12.344;2022-12-20T08:25:00;18.57;;;12.37;;
16484;SDS011;8353;47.856;12.344;2022-12-20T08:27:30;15.33;;;11.40;;
16484;SDS011;8353;47.856;12.344;2022-12-20T08:30:01;16.83;;;12.17;;
16484;SDS011;8353;47.856;12.344;2022-12-20T08:32:32;14.70;;;11.47;;
16484;SDS011;8353;47.856;12.344;2022-12-20T08:35:04;13.60;;;9.67;;
16484;SDS011;8353;47.856;12.344;2022-12-20T08:37:35;31.90;;;20.53;;
16484;SDS011;8353;47.856;12.344;2022-12-20T08:40:07;17.57;;;13.50;;
16484;SDS011;8353;47.856;12.344;2022-12-20T08:42:38;20.57;;;15.33;;
16484;SDS011;8353;47.856;12.344;2022-12-20T08:45:09;21.00;;;15.73;;
16484;SDS011;8353;47.856;12.344;2022-12-20T08:47:40;12.70;;;10.40;;
16484;SDS011;8353;47.856;12.344;2022-12-20T08:50:11;17.10;;;12.33;;
16484;SDS011;8353;47.856;12.344;2022-12-20T08:52:42;21.67;;;14.00;;
16484;SDS011;8353;47.856;12.344;2022-12-20T08:55:12;11.30;;;9.57;;
16484;SDS011;8353;47.856;12.344;2022-12-20T08:57:43;16.97;;;12.60;;
16484;SDS011;8353;47.856;12.344;2022-12-20T09:00:14;13.07;;;10.73;;
16484;SDS011;8353;47.856;12.344;2022-12-20T09:02:44;11.03;;;9.63;;
16484;SDS011;8353;47.856;12.344;2022-12-20T09:05:17;19.70;;;14.67;;
16484;SDS011;8353;47.856;12.344;2022-12-20T09:07:48;12.60;;;9.70;;
16484;SDS011;8353;47.856;12.344;2022-12-20T09:10:19;17.43;;;12.20;;
16484;SDS011;8353;47.856;12.344;2022-12-20T09:12:50;25.57;;;13.20;;
16484;SDS011;8353;47.856;12.344;2022-12-20T09:15:20;18.63;;;11.80;;
16484;SDS011;8353;47.856;12.344;2022-12-20T09:17:50;20.70;;;14.47;;
16484;SDS011;8353;47.856;12.344;2022-12-20T09:20:22;14.73;;;11.33;;
16484;SDS011;8353;47.856;12.344;2022-12-20T09:22:53;16.60;;;12.13;;
16484;SDS011;8353;47.856;12.344;2022-12-20T09:25:24;19.00;;;15.10;;
16484;SDS011;8353;47.856;12.344;2022-12-20T09:27:54;18.93;;;14.30;;
16484;SDS011;8353;47.856;12.344;2022-12-20T09:30:25;13.43;;;10.40;;
16484;SDS011;8353;47.856;12.344;2022-12-20T09:32:55;15.23;;;10.50;;
16484;SDS011;8353;47.856;12.344;2022-12-20T09:35:27;18.60;;;13.83;;
16484;SDS011;8353;47.856;12.344;2022-12-20T09:37:58;16.33;;;11.50;;
16484;SDS011;8353;47.856;12.344;2022-12-20T09:40:29;11.77;;;10.47;;
16484;SDS011;8353;47.856;12.344;2022-12-20T09:43:03;15.07;;;11.33;;
16484;SDS011;8353;47.856;12.344;2022-12-20T09:45:38;18.57;;;14.23;;
16484;SDS011;8353;47.856;12.344;2022-12-20T09:48:09;13.83;;;11.07;;
16484;SDS011;8353;47.856;12.344;2022-12-20T09:50:49;15.67;;;10.77;;
16484;SDS011;8353;47.856;12.344;2022-12-20T09:53:28;12.40;;;10.17;;
16484;SDS011;8353;47.856;12.344;2022-12-20T09:56:11;19.33;;;11.20;;
16484;SDS011;8353;47.856;12.344;2022-12-20T09:58:54;11.60;;;9.17;;
16484;SDS011;8353;47.856;12.344;2022-12-20T10:01:28;12.03;;;10.00;;
16484;SDS011;8353;47.856;12.344;2022-12-20T10:04:02;15.97;;;12.47;;
16484;SDS011;8353;47.856;12.344;2022-12-20T10:06:39;11.83;;;9.97;;
16484;SDS011;8353;47.856;12.344;2022-12-20T10:09:20;23.50;;;17.33;;
16484;SDS011;8353;47.856;12.344;2022-12-20T10:12:07;22.60;;;18.87;;
16484;SDS011;8353;47.856;12.344;2022-12-20T10:14:55;17.83;;;14.23;;
16484;SDS011;8353;47.856;12.344;2022-12-20T10:17:42;14.40;;;11.80;;
16484;SDS011;8353;47.856;12.344;2022-12-20T10:20:33;20.97;;;17.87;;
16484;SDS011;8353;47.856;12.344;2022-12-20T10:23:16;17.60;;;13.83;;
16484;SDS011;8353;47.856;12.344;2022-12-20T10:25:54;14.70;;;11.30;;
16484;SDS011;8353;47.856;12.344;2022-12-20T10:28:27;18.13;;;14.97;;
16484;SDS011;8353;47.856;12.344;2022-12-20T10:30:59;20.63;;;18.17;;
16484;SDS011;8353;47.856;12.344;2022-12-20T10:33:32;29.53;;;17.10;;
16484;SDS011;8353;47.856;12.344;2022-12-20T10:36:19;15.27;;;11.63;;
16484;SDS011;8353;47.856;12.344;2022-12-20T10:38:54;12.37;;;9.13;;
16484;SDS011;8353;47.856;12.344;2022-12-20T10:41:26;17.60;;;11.13;;
16484;SDS011;8353;47.856;12.344;2022-12-20T10:43:58;15.53;;;11.37;;
16484;SDS011;8353;47.856;12.344;2022-12-20T10:46:35;17.27;;;12.67;;
16484;SDS011;8353;47.856;12.344;2022-12-20T10:49:20;12.93;;;10.27;;
16484;SDS011;8353;47.856;12.344;2022-12-20T10:51:56;10.23;;;8.90;;
16484;SDS011;8353;47.856;12.344;2022-12-20T10:54:30;11.87;;;9.67;;
16484;SDS011;8353;47.856;12.344;2022-12-20T10:57:06;10.80;;;8.77;;
16484;SDS011;8353;47.856;12.344;2022-12-20T10:59:48;12.10;;;9.07;;
16484;SDS011;8353;47.856;12.344;2022-12-20T11:02:24;11.77;;;9.63;;
16484;SDS011;8353;47.856;12.344;2022-12-20T11:05:02;11.03;;;8.70;;
16484;SDS011;8353;47.856;12.344;2022-12-20T11:07:51;14.23;;;10.13;;
16484;SDS011;8353;47.856;12.344;2022-12-20T11:10:25;13.20;;;10.30;;
16484;SDS011;8353;47.856;12.344;2022-12-20T11:12:57;11.53;;;8.20;;
16484;SDS011;8353;47.856;12.344;2022-12-20T11:15:29;14.10;;;9.73;;
16484;SDS011;8353;47.856;12.344;2022-12-20T11:18:03;24.40;;;16.00;;
16484;SDS011;8353;47.856;12.344;2022-12-20T11:20:40;44.33;;;24.67;;
16484;SDS011;8353;47.856;12.344;2022-12-20T11:23:16;24.60;;;17.13;;
16484;SDS011;8353;47.856;12.344;2022-12-20T11:26:00;14.17;;;10.93;;
16484;SDS011;8353;47.856;12.344;2022-12-20T11:28:45;13.20;;;9.63;;
16484;SDS011;8353;47.856;12.344;2022-12-20T11:31:25;12.20;;;9.13;;
16484;SDS011;8353;47.856;12.344;2022-12-20T11:34:07;21.73;;;12.07;;
16484;SDS011;8353;47.856;12.344;2022-12-20T11:36:52;14.87;;;10.37;;
16484;SDS011;8353;47.856;12.344;2022-12-20T11:39:33;11.67;;;9.30;;
16484;SDS011;8353;47.856;12.344;2022-12-20T11:42:14;11.00;;;8.57;;
16484;SDS011;8353;47.856;12.344;2022-12-20T11:44:49;10.67;;;8.00;;
16484;SDS011;8353;47.856;12.344;2022-12-20T11:47:31;11.93;;;8.57;;
16484;SDS011;8353;47.856;12.344;2022-12-20T11:50:27;14.20;;;10.93;;
16484;SDS011;8353;47.856;12.344;2022-12-20T11:53:11;14.80;;;11.57;;
16484;SDS011;8353;47.856;12.344;2022-12-20T11:55:50;12.30;;;9.50;;
16484;SDS011;8353;47.856;12.344;2022-12-20T11:58:25;16.37;;;12.53;;
16484;SDS011;8353;47.856;12.344;2022-12-20T12:01:02;13.83;;;10.00;;
16484;SDS011;8353;47.856;12.344;2022-12-20T12:03:37;16.87;;;12.20;;
16484;SDS011;8353;47.856;12.344;2022-12-20T12:06:11;16.83;;;13.60;;
16484;SDS011;8353;47.856;12.344;2022-12-20T12:08:48;12.97;;;10.20;;
16484;SDS011;8353;47.856;12.344;2022-12-20T12:11:23;19.70;;;11.33;;
16484;SDS011;8353;47.856;12.344;2022-12-20T12:13:57;12.50;;;9.13;;
16484;SDS011;8353;47.856;12.344;2022-12-20T12:16:31;16.83;;;12.50;;
16484;SDS011;8353;47.856;12.344;2022-12-20T12:19:04;16.83;;;12.07;;
16484;SDS011;8353;47.856;12.344;2022-12-20T12:21:41;18.00;;;12.53;;
16484;SDS011;8353;47.856;12.344;2022-12-20T12:24:18;10.90;;;8.27;;
16484;SDS011;8353;47.856;12.344;2022-12-20T12:26:53;12.90;;;8.97;;
16484;SDS011;8353;47.856;12.344;2022-12-20T12:29:25;19.27;;;13.93;;
16484;SDS011;8353;47.856;12.344;2022-12-20T12:31:59;15.60;;;12.13;;
16484;SDS011;8353;47.856;12.344;2022-12-20T12:34:38;14.90;;;11.60;;
16484;SDS011;8353;47.856;12.344;2022-12-20T12:37:43;13.07;;;10.40;;
16484;SDS011;8353;47.856;12.344;2022-12-20T12:43:42;13.93;;;11.63;;
16484;SDS011;8353;47.856;12.344;2022-12-20T12:46:17;21.50;;;16.27;;
16484;SDS011;8353;47.856;12.344;2022-12-20T12:48:55;13.60;;;10.77;;
16484;SDS011;8353;47.856;12.344;2022-12-20T12:51:28;18.23;;;13.80;;
16484;SDS011;8353;47.856;12.344;2022-12-20T12:54:11;16.43;;;13.60;;
16484;SDS011;8353;47.856;12.344;2022-12-20T12:56:46;19.97;;;14.00;;
16484;SDS011;8353;47.856;12.344;2022-12-20T13:02:24;12.00;;;9.97;;
16484;SDS011;8353;47.856;12.344;2022-12-20T13:08:09;12.03;;;8.80;;
16484;SDS011;8353;47.856;12.344;2022-12-20T13:10:58;14.47;;;10.37;;
16484;SDS011;8353;47.856;12.344;2022-12-20T13:13:30;26.37;;;18.87;;
16484;SDS011;8353;47.856;12.344;2022-12-20T13:16:11;12.43;;;9.90;;
16484;SDS011;8353;47.856;12.344;2022-12-20T13:19:11;11.77;;;9.77;;
16484;SDS011;8353;47.856;12.344;2022-12-20T13:21:43;18.67;;;15.30;;
16484;SDS011;8353;47.856;12.344;2022-12-20T13:27:14;20.17;;;14.17;;
16484;SDS011;8353;47.856;12.344;2022-12-20T13:30:00;13.80;;;10.77;;
16484;SDS011;8353;47.856;12.344;2022-12-20T13:33:15;16.97;;;12.50;;
16484;SDS011;8353;47.856;12.344;2022-12-20T13:36:02;11.13;;;8.60;;
16484;SDS011;8353;47.856;12.344;2022-12-20T13:38:59;9.57;;;8.53;;
16484;SDS011;8353;47.856;12.344;2022-12-20T13:44:33;11.50;;;8.40;;
16484;SDS011;8353;47.856;12.344;2022-12-20T13:47:21;9.83;;;7.47;;
16484;SDS011;8353;47.856;12.344;2022-12-20T13:49:58;10.70;;;7.90;;
16484;SDS011;8353;47.856;12.344;2022-12-20T13:52:31;11.50;;;9.43;;
16484;SDS011;8353;47.856;12.344;2022-12-20T13:55:14;11.63;;;8.87;;
16484;SDS011;8353;47.856;12.344;2022-12-20T13:57:51;10.17;;;8.27;;
16484;SDS011;8353;47.856;12.344;2022-12-20T14:00:23;14.23;;;9.97;;
16484;SDS011;8353;47.856;12.344;2022-12-20T14:02:55;15.30;;;12.70;;
16484;SDS011;8353;47.856;12.344;2022-12-20T14:05:30;14.00;;;11.57;;
16484;SDS011;8353;47.856;12.344;2022-12-20T14:08:03;11.50;;;9.77;;
16484;SDS011;8353;47.856;12.344;2022-12-20T14:10:36;14.13;;;10.17;;
16484;SDS011;8353;47.856;12.344;2022-12-20T14:13:13;9.10;;;7.77;;
16484;SDS011;8353;47.856;12.344;2022-12-20T14:15:48;11.13;;;9.13;;
16484;SDS011;8353;47.856;12.344;2022-12-20T14:18:20;10.30;;;8.70;;
16484;SDS011;8353;47.856;12.344;2022-12-20T14:20:52;9.37;;;8.17;;
16484;SDS011;8353;47.856;12.344;2022-12-20T14:23:29;6.80;;;6.10;;
16484;SDS011;8353;47.856;12.344;2022-12-20T14:26:05;9.27;;;7.73;;
16484;SDS011;8353;47.856;12.344;2022-12-20T14:28:41;9.97;;;8.23;;
16484;SDS011;8353;47.856;12.344;2022-12-20T14:31:21;19.10;;;15.87;;
16484;SDS011;8353;47.856;12.344;2022-12-20T14:34:01;14.57;;;11.83;;
16484;SDS011;8353;47.856;12.344;2022-12-20T14:36:34;21.73;;;17.27;;
16484;SDS011;8353;47.856;12.344;2022-12-20T14:41:54;9.77;;;7.97;;
16484;SDS011;8353;47.856;12.344;2022-12-20T14:44:25;15.07;;;11.40;;
16484;SDS011;8353;47.856;12.344;2022-12-20T14:46:58;12.37;;;9.83;;
16484;SDS011;8353;47.856;12.344;2022-12-20T14:49:29;13.83;;;10.90;;
16484;SDS011;8353;47.856;12.344;2022-12-20T14:52:05;16.37;;;10.90;;
16484;SDS011;8353;47.856;12.344;2022-12-20T14:54:45;9.77;;;8.67;;
16484;SDS011;8353;47.856;12.344;2022-12-20T14:57:19;18.27;;;14.77;;
16484;SDS011;8353;47.856;12.344;2022-12-20T15:00:00;19.30;;;14.23;;
16484;SDS011;8353;47.856;12.344;2022-12-20T15:02:39;14.60;;;12.20;;
16484;SDS011;8353;47.856;12.344;2022-12-20T15:08:21;19.67;;;14.30;;
16484;SDS011;8353;47.856;12.344;2022-12-20T15:10:57;17.17;;;13.07;;
16484;SDS011;8353;47.856;12.344;2022-12-20T15:13:31;26.90;;;18.20;;
16484;SDS011;8353;47.856;12.344;2022-12-20T15:16:04;22.70;;;14.77;;
16484;SDS011;8353;47.856;12.344;2022-12-20T15:18:42;13.10;;;10.07;;
16484;SDS011;8353;47.856;12.344;2022-12-20T15:21:13;15.67;;;11.33;;
16484;SDS011;8353;47.856;12.344;2022-12-20T15:23:48;15.47;;;11.00;;
16484;SDS011;8353;47.856;12.344;2022-12-20T15:26:23;11.90;;;9.13;;
16484;SDS011;8353;47.856;12.344;2022-12-20T15:28:54;12.40;;;9.70;;
16484;SDS011;8353;47.856;12.344;2022-12-20T15:31:26;14.10;;;11.67;;
16484;SDS011;8353;47.856;12.344;2022-12-20T15:33:58;23.87;;;16.70;;
16484;SDS011;8353;47.856;12.344;2022-12-20T15:36:30;17.50;;;12.53;;
16484;SDS011;8353;47.856;12.344;2022-12-20T15:39:01;12.87;;;9.93;;
16484;SDS011;8353;47.856;12.344;2022-12-20T15:41:33;10.80;;;8.33;;